Time;durP1;ratioP1;P1;durP2;ratioP2;P2;SDS_P1;SDS_P2;PMS_P1;PMS_P2;Temp;Humidity;BMP_temperature;BMP_pressure;BME280_temperature;BME280_humidity;BME280_pressure;Samples;Min_cycle;Max_cycle;Signal;HPM_P1;HPM_P2
2022/10/23 00:01:21;;;;;;;12.18;5.07;;;;;;;11.07;100.00;101199.22;4985310;28;20049;-77
2022/10/23 00:03:50;;;;;;;12.63;5.18;;;;;;;11.03;100.00;101198.72;4967111;28;20050;-77
2022/10/23 00:06:16;;;;;;;12.93;5.00;;;;;;;10.99;100.00;101201.75;4999559;28;20061;-77
2022/10/23 00:08:42;;;;;;;10.77;4.78;;;;;;;10.97;100.00;101191.53;5003796;28;20029;-77
2022/10/23 00:11:12;;;;;;;7.72;4.50;;;;;;;10.95;100.00;101196.06;4991983;28;20041;-77
2022/10/23 00:13:38;;;;;;;7.65;3.95;;;;;;;10.94;100.00;101197.00;5000587;28;20042;-77
2022/10/23 00:16:04;;;;;;;11.15;5.00;;;;;;;10.92;100.00;101188.56;5001997;28;20467;-77
2022/10/23 00:18:29;;;;;;;13.65;4.70;;;;;;;10.93;100.00;101189.41;4988368;28;20053;-77
2022/10/23 00:20:55;;;;;;;10.55;4.30;;;;;;;10.90;100.00;101191.28;5003898;28;20053;-77
2022/10/23 00:23:21;;;;;;;14.05;5.07;;;;;;;10.95;100.00;101185.69;4991974;28;20080;-77
2022/10/23 00:25:46;;;;;;;14.38;5.32;;;;;;;11.03;100.00;101180.53;5006136;28;20456;-77
2022/10/23 00:28:12;;;;;;;20.73;6.35;;;;;;;11.05;100.00;101185.59;4975124;28;20034;-77
2022/10/23 00:30:37;;;;;;;14.23;6.00;;;;;;;11.02;100.00;101191.91;4998189;28;20065;-77
2022/10/23 00:33:03;;;;;;;17.63;6.43;;;;;;;11.03;100.00;101187.53;4990731;28;20030;-77
2022/10/23 00:35:28;;;;;;;13.50;5.78;;;;;;;11.08;100.00;101187.91;4992491;28;20064;-77
2022/10/23 00:37:54;;;;;;;12.30;5.82;;;;;;;11.02;100.00;101183.28;4991614;28;20034;-77
2022/10/23 00:40:19;;;;;;;16.00;6.88;;;;;;;11.04;100.00;101184.78;4977943;28;20041;-77
2022/10/23 00:42:45;;;;;;;15.23;5.55;;;;;;;11.03;100.00;101183.13;4991968;28;20027;-77
2022/10/23 00:45:25;;;;;;;12.68;5.22;;;;;;;11.07;100.00;101179.28;4989668;28;20489;-77
2022/10/23 00:47:52;;;;;;;10.35;5.20;;;;;;;11.00;100.00;101178.28;4995606;28;20048;-77
2022/10/23 00:50:20;;;;;;;12.82;4.90;;;;;;;10.95;100.00;101180.47;4986393;28;20038;-77
2022/10/23 00:52:49;;;;;;;15.27;6.07;;;;;;;10.98;100.00;101177.59;4960967;28;20092;-77
2022/10/23 00:55:20;;;;;;;19.40;5.22;;;;;;;11.20;100.00;101178.09;5004949;28;20286;-77
2022/10/23 00:57:50;;;;;;;16.10;4.88;;;;;;;11.21;100.00;101182.31;4992436;28;20026;-77
2022/10/23 01:00:46;;;;;;;16.50;4.85;;;;;;;11.30;100.00;101178.81;4973623;28;20382;-77
2022/10/23 01:03:14;;;;;;;12.70;5.13;;;;;;;11.32;100.00;101179.50;4990986;28;20038;-77
2022/10/23 01:05:47;;;;;;;15.38;4.93;;;;;;;11.35;100.00;101181.75;4977527;28;20047;-78
2022/10/23 01:08:24;;;;;;;12.02;4.88;;;;;;;11.36;100.00;101180.81;5007172;28;20038;-77
2022/10/23 01:11:10;;;;;;;11.80;5.03;;;;;;;11.27;100.00;101184.31;5000378;28;20037;-77
2022/10/23 01:13:41;;;;;;;12.73;5.53;;;;;;;11.14;100.00;101179.50;4969877;28;20026;-77
2022/10/23 01:16:22;;;;;;;20.70;6.28;;;;;;;11.06;100.00;101184.63;4976952;28;20037;-77
2022/10/23 01:18:57;;;;;;;15.40;6.68;;;;;;;11.01;100.00;101181.66;5007234;28;20042;-77
2022/10/23 01:21:48;;;;;;;17.15;8.05;;;;;;;10.99;100.00;101181.81;4986825;28;20034;-78
2022/10/23 01:24:43;;;;;;;18.23;8.27;;;;;;;11.14;100.00;101179.50;4993210;28;20170;-77
2022/10/23 01:27:20;;;;;;;20.90;8.75;;;;;;;11.19;100.00;101173.84;5000137;28;20042;-78
2022/10/23 01:30:09;;;;;;;15.35;8.00;;;;;;;11.21;100.00;101171.94;4991747;28;20169;-78
2022/10/23 01:32:47;;;;;;;12.50;7.40;;;;;;;11.23;100.00;101172.59;4965290;28;20038;-80
2022/10/23 01:35:17;;;;;;;;;;;;;;;11.29;100.00;101159.81;4979333;28;20049;-78
2022/10/23 01:38:15;;;;;;;23.83;7.25;;;;;;;11.25;100.00;101148.13;4976627;28;20023;-78
2022/10/23 01:41:10;;;;;;;18.27;7.00;;;;;;;11.29;100.00;101141.66;4962190;28;20105;-77
2022/10/23 01:43:43;;;;;;;16.88;7.32;;;;;;;11.27;100.00;101151.38;4984784;28;20185;-78
2022/10/23 01:46:13;;;;;;;17.63;7.95;;;;;;;11.39;100.00;101148.53;4993240;28;20058;-78
2022/10/23 01:48:44;;;;;;;24.67;6.90;;;;;;;11.30;100.00;101132.06;4986438;28;20030;-79
2022/10/23 01:51:12;;;;;;;16.35;6.45;;;;;;;11.37;100.00;101133.09;4990053;28;20490;-79
2022/10/23 01:53:41;;;;;;;19.70;7.15;;;;;;;11.38;100.00;101131.34;5008593;28;20033;-78
2022/10/23 01:56:11;;;;;;;14.57;6.28;;;;;;;11.32;100.00;101127.56;4990015;28;20022;-79
2022/10/23 01:58:41;;;;;;;14.32;5.60;;;;;;;11.36;100.00;101128.88;4989987;28;20060;-79
2022/10/23 02:01:08;;;;;;;16.52;5.75;;;;;;;11.39;100.00;101123.38;4990908;28;20034;-79
2022/10/23 02:03:47;;;;;;;12.85;4.97;;;;;;;11.39;100.00;101123.38;4986767;28;20037;-79
2022/10/23 02:06:13;;;;;;;16.30;5.13;;;;;;;11.46;100.00;101113.19;4988102;28;20026;-80
2022/10/23 02:08:38;;;;;;;14.57;4.63;;;;;;;11.47;100.00;101110.44;4989044;28;20030;-78
2022/10/23 02:11:13;;;;;;;13.27;4.80;;;;;;;11.45;100.00;101116.75;4977595;28;20855;-79
2022/10/23 02:14:00;;;;;;;10.93;4.63;;;;;;;11.38;100.00;101110.56;4982590;28;20064;-78
2022/10/23 02:16:41;;;;;;;22.45;5.90;;;;;;;11.30;100.00;101109.53;4974075;28;20125;-78
2022/10/23 02:19:25;;;;;;;16.55;6.07;;;;;;;11.38;100.00;101103.56;4983041;28;20041;-77
2022/10/23 02:22:11;;;;;;;14.68;5.00;;;;;;;11.44;100.00;101105.56;4987933;28;20037;-76
2022/10/23 02:24:48;;;;;;;13.98;4.68;;;;;;;11.37;100.00;101114.13;4989812;28;20042;-78
2022/10/23 02:27:19;;;;;;;9.63;5.32;;;;;;;11.40;100.00;101114.63;4986595;28;20029;-79
2022/10/23 02:30:07;;;;;;;17.90;6.65;;;;;;;11.35;100.00;101101.28;5002473;28;20026;-80
2022/10/23 02:32:36;;;;;;;13.30;7.45;;;;;;;11.30;100.00;101095.72;4974738;28;20044;-79
2022/10/23 02:35:02;;;;;;;19.90;7.20;;;;;;;11.24;100.00;101091.16;5005843;28;20039;-79
2022/10/23 02:37:28;;;;;;;20.85;9.50;;;;;;;11.38;100.00;101094.97;4991108;28;20460;-77
2022/10/23 02:39:53;;;;;;;13.48;7.25;;;;;;;11.37;100.00;101094.16;5010478;28;20120;-78
2022/10/23 02:42:37;;;;;;;18.40;7.35;;;;;;;11.29;100.00;101099.31;4992028;28;20034;-78
2022/10/23 02:45:08;;;;;;;16.88;6.75;;;;;;;11.38;100.00;101100.97;5005264;28;20045;-77
2022/10/23 02:48:11;;;;;;;17.20;6.55;;;;;;;11.46;100.00;101092.41;4994306;28;20502;-78
2022/10/23 02:51:00;;;;;;;11.50;6.50;;;;;;;11.42;100.00;101091.09;4990641;28;20030;-78
2022/10/23 02:53:53;;;;;;;16.48;7.05;;;;;;;11.46;100.00;101080.25;4991558;28;20022;-79
2022/10/23 02:56:27;;;;;;;12.32;6.68;;;;;;;11.43;100.00;101080.56;4989784;28;20596;-79
2022/10/23 02:59:19;;;;;;;18.52;5.78;;;;;;;11.38;100.00;101077.63;4994490;28;20038;-78
2022/10/23 03:01:49;;;;;;;15.98;5.50;;;;;;;11.43;100.00;101077.97;4975750;28;20030;-79
2022/10/23 03:04:17;;;;;;;13.23;5.25;;;;;;;11.46;100.00;101075.06;4999829;28;20033;-78
2022/10/23 03:06:44;;;;;;;10.75;5.20;;;;;;;11.56;100.00;101076.72;4997362;28;20026;-78
2022/10/23 03:09:14;;;;;;;15.63;5.85;;;;;;;11.55;100.00;101070.72;4974641;28;20100;-77
2022/10/23 03:11:39;;;;;;;15.82;5.00;;;;;;;11.45;100.00;101055.25;4971668;28;21756;-78
2022/10/23 03:14:05;;;;;;;10.98;5.28;;;;;;;11.43;100.00;101061.56;4989749;28;20033;-79
2022/10/23 03:16:31;;;;;;;14.15;5.07;;;;;;;11.46;100.00;101049.09;4975780;28;20022;-78
2022/10/23 03:18:56;;;;;;;11.27;4.95;;;;;;;11.46;100.00;101050.88;5005788;28;20834;-78
2022/10/23 03:21:22;;;;;;;11.85;4.63;;;;;;;11.50;100.00;101042.59;4987933;28;20057;-79
2022/10/23 03:23:51;;;;;;;11.02;4.80;;;;;;;11.55;100.00;101033.56;4989409;28;20018;-77
2022/10/23 03:26:21;;;;;;;9.57;4.75;;;;;;;11.56;100.00;101025.59;5002025;28;20033;-77
2022/10/23 03:28:47;;;;;;;16.27;3.75;;;;;;;11.64;100.00;101023.03;4984827;28;20038;-77
2022/10/23 03:31:14;;;;;;;17.10;4.20;;;;;;;11.60;100.00;101021.72;4986686;28;20052;-78
2022/10/23 03:33:39;;;;;;;7.22;3.40;;;;;;;11.65;100.00;101016.84;5004204;28;20510;-79
2022/10/23 03:36:08;;;;;;;15.52;4.32;;;;;;;11.61;100.00;101015.53;4999687;28;20014;-78
2022/10/23 03:38:34;;;;;;;12.23;5.15;;;;;;;11.70;100.00;101016.41;5006770;28;20038;-77
2022/10/23 03:41:00;;;;;;;11.23;4.18;;;;;;;11.60;100.00;101016.53;4990202;28;20018;-78
2022/10/23 03:43:27;;;;;;;11.00;5.30;;;;;;;11.58;100.00;101022.84;4983186;28;20038;-78
2022/10/23 03:45:54;;;;;;;14.27;4.45;;;;;;;11.64;100.00;101022.19;5001593;28;20038;-78
2022/10/23 03:48:23;;;;;;;15.10;4.25;;;;;;;11.62;100.00;101018.94;4974483;28;20605;-78
2022/10/23 03:50:49;;;;;;;15.68;5.20;;;;;;;11.65;100.00;101026.44;4993549;28;20903;-78
2022/10/23 03:53:15;;;;;;;14.60;4.88;;;;;;;11.65;100.00;101029.03;4991462;28;20092;-78
2022/10/23 03:55:40;;;;;;;13.93;5.20;;;;;;;11.73;100.00;101025.66;4989020;28;21094;-78
2022/10/23 03:58:06;;;;;;;15.10;5.00;;;;;;;11.76;100.00;101020.94;4985230;28;20556;-77
2022/10/23 04:00:31;;;;;;;20.17;4.50;;;;;;;11.76;100.00;101020.16;5001979;28;20045;-81
2022/10/23 04:02:59;;;;;;;23.13;4.90;;;;;;;11.75;100.00;101019.31;4988398;28;20152;-78
2022/10/23 04:05:25;;;;;;;18.45;4.20;;;;;;;11.76;100.00;101014.94;4971266;28;20074;-77
2022/10/23 04:07:54;;;;;;;11.98;3.88;;;;;;;11.78;100.00;101016.41;4997643;28;20064;-79
2022/10/23 04:10:19;;;;;;;10.32;4.75;;;;;;;11.82;100.00;101009.13;4986512;28;20041;-79
2022/10/23 04:12:45;;;;;;;15.65;4.80;;;;;;;11.85;100.00;101003.59;4988474;28;20052;-77
2022/10/23 04:15:11;;;;;;;8.93;4.82;;;;;;;11.87;100.00;101002.47;4993574;28;20030;-83
2022/10/23 04:17:37;;;;;;;9.93;4.57;;;;;;;11.95;100.00;100998.28;4973231;28;20029;-79
2022/10/23 04:20:03;;;;;;;14.75;5.20;;;;;;;11.90;100.00;100995.34;5001273;28;20037;-77
2022/10/23 04:22:29;;;;;;;12.82;4.18;;;;;;;12.03;100.00;100998.28;4988948;28;20037;-78
2022/10/23 04:24:54;;;;;;;14.40;4.60;;;;;;;11.96;100.00;100992.09;4988782;28;20049;-77
2022/10/23 04:27:20;;;;;;;10.65;4.40;;;;;;;12.11;100.00;100987.09;5003605;28;20056;-78
2022/10/23 04:29:45;;;;;;;16.45;4.25;;;;;;;12.08;100.00;100989.03;4986558;28;20479;-79
2022/10/23 04:32:11;;;;;;;8.13;3.72;;;;;;;11.97;100.00;100980.75;4971541;28;20077;-78
2022/10/23 04:34:37;;;;;;;10.73;4.03;;;;;;;11.94;100.00;100981.06;4983386;28;20057;-78
2022/10/23 04:37:03;;;;;;;10.07;5.25;;;;;;;12.04;100.00;100979.94;4988347;28;20029;-79
2022/10/23 04:39:28;;;;;;;17.42;4.50;;;;;;;12.07;100.00;100976.19;4983256;28;20037;-77
2022/10/23 04:41:54;;;;;;;9.35;4.47;;;;;;;12.12;100.00;100973.94;4981642;28;20038;-79
2022/10/23 04:44:20;;;;;;;12.45;4.72;;;;;;;12.05;100.00;100962.56;4970109;28;20706;-77
2022/10/23 04:46:45;;;;;;;11.20;5.05;;;;;;;12.16;100.00;100959.63;4988568;28;20030;-77
2022/10/23 04:49:11;;;;;;;9.98;4.03;;;;;;;12.13;100.00;100967.78;4984300;28;20030;-77
2022/10/23 04:51:46;;;;;;;13.07;4.65;;;;;;;12.12;100.00;100973.94;4992831;28;20058;-77
2022/10/23 04:54:38;;;;;;;16.25;3.75;;;;;;;12.06;100.00;100966.78;4995074;28;20028;-78
2022/10/23 04:57:19;;;;;;;10.38;4.28;;;;;;;12.08;100.00;100964.84;4991058;28;22331;-78
2022/10/23 05:00:12;;;;;;;12.98;3.65;;;;;;;11.97;100.00;100968.56;4995389;28;20038;-77
2022/10/23 05:02:43;;;;;;;15.75;4.63;;;;;;;12.11;100.00;100966.31;4995141;28;20087;-78
2022/10/23 05:05:09;;;;;;;10.20;4.40;;;;;;;12.16;100.00;100964.84;4984553;28;20157;-77
2022/10/23 05:07:53;;;;;;;10.43;4.03;;;;;;;12.16;100.00;100966.63;4986998;28;20087;-77
2022/10/23 05:10:32;;;;;;;11.18;3.58;;;;;;;12.05;100.00;100971.19;4986097;28;20061;-76
2022/10/23 05:13:07;;;;;;;10.50;3.60;;;;;;;12.06;100.00;100961.59;4980130;28;20041;-77
2022/10/23 05:15:33;;;;;;;7.53;2.92;;;;;;;12.05;100.00;100954.75;4973047;28;20029;-77
2022/10/23 05:18:03;;;;;;;10.98;3.72;;;;;;;11.98;100.00;100946.81;4974511;28;20059;-77
2022/10/23 05:20:34;;;;;;;10.88;3.33;;;;;;;12.10;100.00;100939.50;5003742;28;20037;-79
2022/10/23 05:23:01;;;;;;;12.50;4.43;;;;;;;12.05;100.00;100941.78;4989272;28;20029;-77
2022/10/23 05:25:29;;;;;;;14.05;3.65;;;;;;;12.13;100.00;100930.56;5004130;28;20023;-78
2022/10/23 05:28:11;;;;;;;15.85;3.80;;;;;;;12.15;100.00;100932.03;4975040;28;20057;-78
2022/10/23 05:30:37;;;;;;;9.90;3.65;;;;;;;12.08;100.00;100924.06;4994890;28;20041;-77
2022/10/23 05:33:03;;;;;;;12.88;4.20;;;;;;;12.04;100.00;100912.38;4962369;28;20114;-78
2022/10/23 05:35:35;;;;;;;9.55;3.20;;;;;;;12.00;100.00;100918.06;4989846;28;20526;-78
2022/10/23 05:38:01;;;;;;;10.27;3.33;;;;;;;11.88;100.00;100920.13;5002853;28;20037;-78
2022/10/23 05:40:26;;;;;;;8.02;3.17;;;;;;;11.96;100.00;100920.19;5005983;28;20025;-76
2022/10/23 05:42:58;;;;;;;9.07;3.35;;;;;;;12.03;100.00;100928.94;4990260;28;20514;-77
2022/10/23 05:45:42;;;;;;;6.93;2.90;;;;;;;11.98;100.00;100938.19;4987989;28;20030;-78
2022/10/23 05:48:33;;;;;;;13.88;3.40;;;;;;;11.94;100.00;100927.31;4986543;28;20049;-77
2022/10/23 05:51:25;;;;;;;9.70;2.88;;;;;;;12.00;100.00;100916.28;5000920;28;20080;-77
2022/10/23 05:53:56;;;;;;;6.25;3.05;;;;;;;12.03;100.00;100915.13;5000235;28;20027;-77
2022/10/23 05:56:37;;;;;;;11.60;3.47;;;;;;;11.98;100.00;100907.00;5002598;28;20025;-76
2022/10/23 05:59:09;;;;;;;15.25;3.72;;;;;;;11.91;100.00;100908.66;5005514;28;20502;-76
2022/10/23 06:01:50;;;;;;;9.55;3.35;;;;;;;11.96;100.00;100893.38;4982951;28;20038;-78
2022/10/23 06:04:37;;;;;;;12.60;3.13;;;;;;;11.88;100.00;100899.34;5001836;28;20034;-77
2022/10/23 06:07:38;;;;;;;10.77;3.92;;;;;;;11.99;100.00;100895.66;4988076;28;20044;-77
2022/10/23 06:10:05;;;;;;;7.47;3.17;;;;;;;11.94;100.00;100897.91;5005779;28;20041;-77
2022/10/23 06:12:34;;;;;;;11.98;2.80;;;;;;;12.03;100.00;100895.16;4976488;28;20045;-78
2022/10/23 06:15:00;;;;;;;15.80;3.63;;;;;;;11.96;100.00;100890.75;4974780;28;20523;-77
2022/10/23 06:17:41;;;;;;;15.35;3.88;;;;;;;11.97;100.00;100889.81;4988113;28;20132;-77
2022/10/23 06:20:07;;;;;;;13.52;3.35;;;;;;;11.90;100.00;100889.63;5007351;28;20029;-78
2022/10/23 06:22:36;;;;;;;12.43;4.38;;;;;;;11.99;100.00;100896.44;4989307;28;20033;-77
2022/10/23 06:25:16;;;;;;;8.27;3.67;;;;;;;12.03;100.00;100889.16;4967529;28;20041;-76
2022/10/23 06:27:42;;;;;;;10.10;4.13;;;;;;;11.99;100.00;100880.06;4973364;28;20042;-78
2022/10/23 06:30:08;;;;;;;11.13;3.25;;;;;;;12.00;100.00;100886.88;4969438;28;20034;-77
2022/10/23 06:32:34;;;;;;;10.57;3.50;;;;;;;11.97;100.00;100882.81;4982284;28;20042;-77
2022/10/23 06:35:09;;;;;;;11.75;2.85;;;;;;;11.95;100.00;100882.16;4983684;28;20072;-77
2022/10/23 06:37:34;;;;;;;8.07;3.72;;;;;;;12.07;100.00;100882.63;4967938;28;20037;-77
2022/10/23 06:40:07;;;;;;;12.07;4.37;;;;;;;12.05;100.00;100882.00;4978740;28;20030;-77
2022/10/23 06:42:41;;;;;;;10.32;4.07;;;;;;;12.09;100.00;100880.69;5003805;28;20033;-77
2022/10/23 06:45:21;;;;;;;9.13;3.38;;;;;;;12.07;100.00;100874.84;5001546;28;20561;-78
2022/10/23 06:47:50;;;;;;;6.53;2.63;;;;;;;12.07;100.00;100877.44;5003399;28;20077;-78
2022/10/23 06:50:39;;;;;;;13.20;3.40;;;;;;;12.02;100.00;100870.16;4977025;28;20100;-77
2022/10/23 06:53:11;;;;;;;6.68;2.78;;;;;;;12.04;100.00;100867.41;4987283;28;20022;-77
2022/10/23 06:55:41;;;;;;;10.32;2.90;;;;;;;12.09;100.00;100872.88;4964718;28;20030;-77
2022/10/23 06:58:09;;;;;;;7.55;2.70;;;;;;;12.14;100.00;100875.81;4988454;28;20026;-77
2022/10/23 07:00:44;;;;;;;11.15;3.22;;;;;;;12.18;100.00;100871.91;4976257;28;20108;-77
2022/10/23 07:03:10;;;;;;;16.20;3.50;;;;;;;12.14;100.00;100864.63;4991696;28;20109;-78
2022/10/23 07:05:35;;;;;;;9.82;3.00;;;;;;;12.20;100.00;100864.75;5003568;28;20088;-77
2022/10/23 07:08:03;;;;;;;13.32;4.32;;;;;;;12.18;100.00;100864.09;4989919;28;20030;-77
2022/10/23 07:10:33;;;;;;;8.82;3.47;;;;;;;12.15;100.00;100867.06;4974544;28;20484;-77
2022/10/23 07:12:59;;;;;;;7.60;3.00;;;;;;;12.23;100.00;100866.22;4994310;28;20037;-78
2022/10/23 07:15:39;;;;;;;12.75;3.45;;;;;;;12.26;100.00;100858.91;4996543;28;20022;-77
2022/10/23 07:18:13;;;;;;;10.90;3.22;;;;;;;12.29;100.00;100860.38;4976100;28;20790;-77
2022/10/23 07:20:58;;;;;;;8.40;2.40;;;;;;;12.22;100.00;100862.81;4977860;28;20553;-79
2022/10/23 07:23:24;;;;;;;9.15;2.70;;;;;;;12.32;100.00;100851.41;4988808;28;20038;-76
2022/10/23 07:25:49;;;;;;;12.77;2.80;;;;;;;12.33;100.00;100848.66;4998086;28;20092;-79
2022/10/23 07:28:20;;;;;;;11.15;3.22;;;;;;;12.36;100.00;100842.31;4973195;28;20041;-77
2022/10/23 07:30:58;;;;;;;13.65;4.07;;;;;;;12.35;100.00;100843.28;5000649;28;20027;-77
2022/10/23 07:33:28;;;;;;;5.72;2.67;;;;;;;12.43;100.00;100832.84;4987691;28;20703;-79
2022/10/23 07:36:07;;;;;;;8.60;2.53;;;;;;;12.46;100.00;100833.34;4988278;28;20026;-77
2022/10/23 07:38:33;;;;;;;9.23;2.65;;;;;;;12.63;100.00;100834.09;5002486;28;20030;-77
2022/10/23 07:40:59;;;;;;;7.25;2.60;;;;;;;12.74;100.00;100834.72;4983445;28;20083;-78
2022/10/23 07:43:25;;;;;;;15.50;2.90;;;;;;;12.77;100.00;100835.19;4970070;28;20040;-77
2022/10/23 07:45:52;;;;;;;8.85;3.00;;;;;;;12.95;100.00;100837.53;4987150;28;20502;-80
2022/10/23 07:48:26;;;;;;;6.15;2.40;;;;;;;13.05;100.00;100832.09;4985515;28;20110;-77
2022/10/23 07:51:07;;;;;;;11.40;2.47;;;;;;;13.15;100.00;100832.72;4982088;28;20077;-81
2022/10/23 07:53:35;;;;;;;8.15;2.83;;;;;;;13.42;100.00;100834.03;4989791;28;20049;-77
2022/10/23 07:56:23;;;;;;;7.25;2.10;;;;;;;13.56;100.00;100824.66;5004008;28;20033;-80
2022/10/23 07:59:11;;;;;;;8.15;2.42;;;;;;;13.90;100.00;100814.75;4986151;28;20154;-80
2022/10/23 08:01:38;;;;;;;4.95;2.10;;;;;;;14.35;100.00;100810.38;4991608;28;20045;-79
2022/10/23 08:04:05;;;;;;;11.30;2.33;;;;;;;14.56;99.73;100810.47;4986956;28;20109;-79
2022/10/23 08:06:34;;;;;;;6.80;1.95;;;;;;;14.84;98.18;100801.97;4983326;28;20058;-78
2022/10/23 08:08:59;;;;;;;11.93;2.10;;;;;;;15.20;95.94;100803.78;4996065;28;20038;-81
2022/10/23 08:11:26;;;;;;;5.05;1.80;;;;;;;15.33;92.93;100814.34;5004483;28;20038;-81
2022/10/23 08:13:54;;;;;;;9.45;1.92;;;;;;;15.47;92.64;100811.84;4987758;28;20034;-79
2022/10/23 08:16:23;;;;;;;11.63;1.95;;;;;;;15.73;91.67;100812.09;4985778;28;20022;-81
2022/10/23 08:18:58;;;;;;;11.40;2.03;;;;;;;15.73;91.04;100814.72;5006076;28;20092;-81
2022/10/23 08:21:23;;;;;;;5.13;1.90;;;;;;;15.54;91.41;100812.72;4999241;28;20049;-80
2022/10/23 08:23:56;;;;;;;6.40;1.63;;;;;;;15.47;91.29;100806.63;4990040;28;20021;-84
2022/10/23 08:26:23;;;;;;;5.07;1.65;;;;;;;15.40;92.15;100809.16;4998064;28;20040;-78
2022/10/23 08:28:49;;;;;;;6.57;1.80;;;;;;;15.49;92.19;100810.66;4997380;28;20030;-78
2022/10/23 08:31:17;;;;;;;11.48;1.73;;;;;;;15.30;93.45;100803.47;4999975;28;20033;-78
2022/10/23 08:33:59;;;;;;;5.75;2.08;;;;;;;15.12;94.02;100793.44;4986484;28;20033;-78
2022/10/23 08:36:27;;;;;;;8.02;1.80;;;;;;;14.92;93.68;100807.09;4992955;28;20029;-82
2022/10/23 08:38:56;;;;;;;12.25;1.90;;;;;;;14.95;94.61;100813.75;4986377;28;20108;-79
2022/10/23 08:41:29;;;;;;;6.60;1.98;;;;;;;15.02;94.95;100809.41;4987999;28;20033;-80
2022/10/23 08:44:26;;;;;;;4.28;1.70;;;;;;;15.25;93.53;100795.38;4988875;28;20033;-82
2022/10/23 08:47:07;;;;;;;4.75;1.65;;;;;;;15.22;92.61;100788.72;5000583;28;20081;-78
2022/10/23 08:49:44;;;;;;;8.40;2.03;;;;;;;15.17;93.32;100789.25;4985759;28;20042;-83
2022/10/23 08:52:27;;;;;;;7.35;2.20;;;;;;;15.02;94.40;100778.06;4983330;28;20420;-83
2022/10/23 08:54:59;;;;;;;;;;;;;;;14.95;94.32;100764.94;4980323;28;20176;-82
2022/10/23 08:57:33;;;;;;;12.52;2.28;;;;;;;14.86;95.30;100763.47;4988871;28;19918;-85
2022/10/23 09:00:12;;;;;;;8.90;1.98;;;;;;;14.84;95.90;100759.41;4988652;28;20038;-83
2022/10/23 09:02:45;;;;;;;7.75;2.50;;;;;;;14.79;95.97;100760.78;4987088;28;20432;-83
2022/10/23 09:05:30;;;;;;;10.18;2.40;;;;;;;14.83;96.22;100748.16;5002087;28;20470;-81
2022/10/23 09:08:20;;;;;;;6.60;1.92;;;;;;;14.91;95.96;100739.41;4992761;28;20038;-82
2022/10/23 09:11:24;;;;;;;6.38;2.28;;;;;;;14.91;96.74;100742.00;4972718;28;20030;-80
2022/10/23 09:14:04;;;;;;;11.65;2.30;;;;;;;14.98;96.41;100722.81;4992803;28;20580;-79
2022/10/23 09:16:48;;;;;;;5.97;1.83;;;;;;;14.93;96.70;100729.56;4987219;28;20034;-81
2022/10/23 09:19:16;;;;;;;5.15;1.88;;;;;;;14.95;95.95;100719.75;5007738;28;20032;-82
2022/10/23 09:21:45;;;;;;;5.00;2.30;;;;;;;14.98;95.55;100724.63;4986719;28;20061;-81
2022/10/23 09:24:16;;;;;;;2.35;1.48;;;;;;;15.09;95.42;100718.09;4972947;28;20084;-77
2022/10/23 09:26:47;;;;;;;5.30;1.67;;;;;;;15.05;95.36;100724.66;5001019;28;20034;-80
2022/10/23 09:29:34;;;;;;;8.05;1.95;;;;;;;15.14;94.94;100731.38;4981779;28;20034;-82
2022/10/23 09:32:03;;;;;;;13.23;3.85;;;;;;;15.21;95.16;100721.78;4974412;28;20374;-81
2022/10/23 09:34:31;;;;;;;8.10;2.45;;;;;;;15.28;94.85;100716.66;4977418;28;20045;-79
2022/10/23 09:37:19;;;;;;;15.05;2.38;;;;;;;15.33;93.55;100716.88;5000584;28;20026;-80
2022/10/23 09:39:45;;;;;;;7.88;2.25;;;;;;;15.37;93.76;100712.91;4987449;28;20500;-78
2022/10/23 09:42:22;;;;;;;8.48;2.13;;;;;;;15.56;93.49;100708.81;5006872;28;20057;-78
2022/10/23 09:44:50;;;;;;;7.72;1.38;;;;;;;15.63;92.90;100701.00;4999643;28;20091;-78
2022/10/23 09:47:22;;;;;;;3.50;1.58;;;;;;;15.63;92.69;100704.41;4990436;28;20479;-78
2022/10/23 09:49:54;;;;;;;7.88;1.63;;;;;;;15.80;91.08;100696.31;5003132;28;20030;-78
2022/10/23 09:52:36;;;;;;;9.63;1.60;;;;;;;15.83;90.63;100693.31;4980489;28;20056;-79
2022/10/23 09:55:19;;;;;;;6.65;2.10;;;;;;;15.83;89.73;100682.84;4994873;28;20073;-82
2022/10/23 09:57:45;;;;;;;;;;;;;;;15.77;89.40;100676.59;5002371;28;20080;-80
2022/10/23 10:00:17;;;;;;;3.45;1.70;;;;;;;15.80;89.91;100678.81;5007641;28;19914;-81
2022/10/23 10:02:54;;;;;;;5.70;1.40;;;;;;;15.93;89.99;100675.47;4994142;28;20121;-83
2022/10/23 10:05:40;;;;;;;7.25;1.80;;;;;;;15.92;89.80;100676.47;4993115;28;20049;-82
2022/10/23 10:08:24;;;;;;;6.45;2.55;;;;;;;15.91;90.01;100674.84;4978917;28;20030;-79
2022/10/23 10:10:56;;;;;;;3.90;1.30;;;;;;;15.89;90.22;100669.81;4991404;28;20116;-80
2022/10/23 10:13:42;;;;;;;4.72;1.45;;;;;;;15.93;89.20;100665.00;4992438;28;20089;-79
2022/10/23 10:16:19;;;;;;;2.72;1.40;;;;;;;15.96;89.37;100662.81;5006074;28;20041;-76
2022/10/23 10:19:07;;;;;;;6.45;1.33;;;;;;;15.98;88.91;100664.44;5008208;28;20441;-79
2022/10/23 10:21:32;;;;;;;5.32;1.48;;;;;;;16.05;88.20;100655.59;4990579;28;20057;-80
2022/10/23 10:24:17;;;;;;;5.28;2.00;;;;;;;16.07;88.05;100655.41;4994221;28;20126;-80
2022/10/23 10:26:50;;;;;;;8.70;1.63;;;;;;;16.11;88.38;100648.78;5003049;28;20574;-79
2022/10/23 10:29:30;;;;;;;;;;;;;;;16.14;89.21;100645.75;5004186;28;20037;-80
2022/10/23 10:32:04;;;;;;;7.93;1.88;;;;;;;16.12;88.76;100630.28;4992166;28;19917;-81
2022/10/23 10:34:50;;;;;;;7.68;1.65;;;;;;;16.14;88.45;100622.22;4991129;28;20084;-78
2022/10/23 10:37:25;;;;;;;6.50;1.40;;;;;;;16.19;88.34;100622.44;5008300;28;20533;-83
2022/10/23 10:40:13;;;;;;;6.38;2.03;;;;;;;16.24;88.06;100630.50;4993092;28;20557;-84
2022/10/23 10:43:02;;;;;;;5.57;1.30;;;;;;;16.25;88.66;100644.41;4999525;28;20038;-80
2022/10/23 10:45:59;;;;;;;5.35;2.17;;;;;;;16.26;88.24;100623.28;5006288;28;20155;-79
2022/10/23 10:48:40;;;;;;;9.88;1.55;;;;;;;16.22;88.64;100626.47;4985916;28;20033;-82
2022/10/23 10:51:45;;;;;;;8.80;1.80;;;;;;;16.30;88.42;100621.88;4990101;28;20494;-80
2022/10/23 10:54:17;;;;;;;8.35;1.70;;;;;;;16.23;87.79;100615.00;4976444;28;20033;-77
2022/10/23 10:56:46;;;;;;;5.65;1.50;;;;;;;16.22;88.33;100610.78;4988296;28;20037;-79
2022/10/23 10:59:30;;;;;;;7.78;1.65;;;;;;;16.24;88.29;100606.19;5006047;28;20030;-84
2022/10/23 11:01:59;;;;;;;3.60;1.50;;;;;;;16.27;88.23;100598.72;5011364;28;20029;-84
2022/10/23 11:04:39;;;;;;;3.33;1.15;;;;;;;16.19;89.08;100592.88;4990539;28;20038;-78
2022/10/23 11:07:15;;;;;;;5.10;1.85;;;;;;;16.33;88.15;100576.19;4996823;28;20042;-84
2022/10/23 11:09:41;;;;;;;3.15;1.20;;;;;;;16.37;87.96;100577.41;4998543;28;20128;-88
2022/10/23 11:12:19;;;;;;;5.18;2.33;;;;;;;16.45;87.56;100577.22;4969442;28;20034;-81
2022/10/23 11:14:45;;;;;;;4.47;1.50;;;;;;;16.46;88.29;100570.16;4986710;28;20039;-81
2022/10/23 11:17:20;;;;;;;16.85;2.03;;;;;;;16.48;87.49;100565.53;4987384;28;20037;-83
2022/10/23 11:19:58;;;;;;;6.18;1.90;;;;;;;16.43;87.62;100560.13;4966446;28;20062;-83
2022/10/23 11:22:46;;;;;;;3.20;1.52;;;;;;;16.42;88.30;100561.09;5003475;28;20040;-86
2022/10/23 11:25:32;;;;;;;7.38;1.85;;;;;;;16.36;88.75;100557.47;4981290;28;20411;-80
2022/10/23 11:28:38;;;;;;;5.28;1.50;;;;;;;16.38;88.21;100555.47;4944200;28;20053;-84
2022/10/23 11:31:24;;;;;;;2.47;1.33;;;;;;;16.38;87.81;100565.13;4965273;28;20046;-85
2022/10/23 11:34:29;;;;;;;5.57;1.33;;;;;;;16.47;88.32;100551.66;4971632;28;20072;-78
2022/10/23 11:37:00;;;;;;;5.05;1.60;;;;;;;16.62;87.13;100542.81;4994828;28;20510;-84
2022/10/23 11:39:31;;;;;;;7.15;1.90;;;;;;;16.72;85.86;100530.09;4986242;28;20503;-82
2022/10/23 11:42:04;;;;;;;3.58;1.85;;;;;;;16.72;86.64;100519.63;5004065;28;20241;-79
2022/10/23 11:44:43;;;;;;;6.93;1.55;;;;;;;16.76;86.64;100526.06;4971813;28;20034;-83
2022/10/23 11:47:37;;;;;;;7.50;1.33;;;;;;;16.79;86.65;100517.81;4989149;28;20470;-81